Time;durP1;ratioP1;P1;durP2;ratioP2;P2;SDS_P1;SDS_P2;PMS_P1;PMS_P2;Temp;Humidity;BMP_temperature;BMP_pressure;BME280_temperature;BME280_humidity;BME280_pressure;Samples;Min_cycle;Max_cycle;Signal;HPM_P1;HPM_P2
2022/02/24 00:01:04;;;;;;;7.65;3.67;;;;;;;3.82;61.67;93812.03;5047518;28;20456;-41
2022/02/24 00:03:30;;;;;;;8.68;3.75;;;;;;;3.78;60.93;93811.53;5047520;28;20554;-40
2022/02/24 00:05:56;;;;;;;7.38;3.60;;;;;;;3.62;62.23;93799.34;5047723;28;20421;-41
2022/02/24 00:08:22;;;;;;;21.58;6.60;;;;;;;3.57;61.96;93799.34;5047647;28;20033;-41
2022/02/24 00:10:47;;;;;;;17.08;6.32;;;;;;;3.51;63.09;93804.06;5047264;28;20097;-38
2022/02/24 00:13:15;;;;;;;14.57;6.38;;;;;;;3.53;62.96;93796.13;5047614;28;20025;-40
2022/02/24 00:15:41;;;;;;;17.80;6.18;;;;;;;3.51;63.23;93804.06;5047366;28;20679;-40
2022/02/24 00:18:07;;;;;;;11.55;4.47;;;;;;;3.51;63.13;93796.59;5047217;28;20490;-40
2022/02/24 00:20:32;;;;;;;7.53;3.92;;;;;;;3.42;63.77;93793.38;5047280;28;20037;-39
2022/02/24 00:22:58;;;;;;;6.28;3.55;;;;;;;3.47;62.46;93798.84;5047203;28;20040;-40
2022/02/24 00:25:23;;;;;;;5.63;2.70;;;;;;;3.52;63.43;93795.38;5047222;28;20093;-39
2022/02/24 00:27:49;;;;;;;10.68;3.83;;;;;;;3.51;62.91;93782.22;5046973;28;20049;-39
2022/02/24 00:30:14;;;;;;;6.80;3.00;;;;;;;3.44;62.67;93778.00;5047096;28;20505;-39
2022/02/24 00:32:40;;;;;;;7.38;4.75;;;;;;;3.36;62.82;93771.53;5047149;28;20032;-41
2022/02/24 00:35:06;;;;;;;2.70;2.50;;;;;;;3.35;62.37;93780.22;5047023;28;20033;-40
2022/02/24 00:37:31;;;;;;;8.60;3.85;;;;;;;3.21;62.76;93779.19;5047084;28;20029;-40
2022/02/24 00:39:57;;;;;;;3.60;2.70;;;;;;;3.14;63.25;93776.94;5045977;27;20659;-41
2022/02/24 00:42:22;;;;;;;5.05;2.72;;;;;;;2.95;63.51;93765.75;5047306;28;20029;-40
2022/02/24 00:44:48;;;;;;;7.85;3.05;;;;;;;2.79;62.82;93752.81;5048843;28;20025;-40
2022/02/24 00:47:13;;;;;;;5.88;2.97;;;;;;;2.97;63.32;93762.50;5050817;28;20024;-40
2022/02/24 00:49:39;;;;;;;5.82;2.92;;;;;;;2.94;63.33;93767.00;5050877;28;20074;-40
2022/02/24 00:52:04;;;;;;;3.85;2.45;;;;;;;2.90;61.89;93760.28;5050597;28;20490;-40
2022/02/24 00:54:30;;;;;;;5.32;3.08;;;;;;;2.70;62.33;93733.19;5050564;28;20041;-40
2022/02/24 00:56:55;;;;;;;3.15;2.53;;;;;;;2.94;62.92;93763.50;5050353;28;20035;-40
2022/02/24 00:59:21;;;;;;;7.47;3.13;;;;;;;2.79;62.30;93730.25;5050741;28;20029;-40
2022/02/24 01:01:48;;;;;;;8.40;1.80;;;;;;;2.99;60.69;93758.06;5050634;28;20028;-40
2022/02/24 01:04:14;;;;;;;3.75;1.85;;;;;;;3.05;60.43;93758.09;5050547;28;20025;-40
2022/02/24 01:06:39;;;;;;;8.30;2.42;;;;;;;3.11;60.54;93747.19;5050316;28;20527;-40
2022/02/24 01:09:05;;;;;;;4.60;2.70;;;;;;;3.15;60.91;93751.16;5050083;28;20036;-40
2022/02/24 01:11:30;;;;;;;2.88;2.42;;;;;;;3.18;61.17;93749.44;5050174;28;20036;-40
2022/02/24 01:13:55;;;;;;;3.10;2.58;;;;;;;3.16;61.72;93757.38;5050078;28;20074;-40
2022/02/24 01:16:21;;;;;;;6.63;2.30;;;;;;;3.12;60.85;93749.41;5050081;28;20036;-40
2022/02/24 01:18:46;;;;;;;5.30;2.20;;;;;;;3.14;60.05;93751.66;5050010;28;20021;-40
2022/02/24 01:21:12;;;;;;;6.07;2.50;;;;;;;3.11;61.21;93749.91;5050276;28;20036;-40
2022/02/24 01:23:37;;;;;;;4.80;2.28;;;;;;;2.95;60.58;93721.34;5050200;28;20036;-40
2022/02/24 01:26:03;;;;;;;3.50;1.92;;;;;;;3.08;59.68;93751.63;5049683;28;20028;-41
2022/02/24 01:28:28;;;;;;;6.22;2.63;;;;;;;3.19;60.31;93746.19;5049782;28;20049;-41
2022/02/24 01:30:53;;;;;;;4.00;2.42;;;;;;;3.08;61.04;93748.91;5050095;28;20025;-40
2022/02/24 01:33:19;;;;;;;4.10;2.03;;;;;;;3.13;60.65;93744.69;5049796;28;20029;-41
2022/02/24 01:35:44;;;;;;;3.30;2.28;;;;;;;3.12;60.55;93754.13;5049988;28;20029;-40
2022/02/24 01:38:10;;;;;;;4.45;2.40;;;;;;;3.13;60.58;93752.88;5050089;28;20017;-40
2022/02/24 01:40:35;;;;;;;4.95;2.60;;;;;;;3.14;60.79;93752.38;5049653;27;20040;-40
2022/02/24 01:43:01;;;;;;;2.10;1.70;;;;;;;3.16;59.35;93755.38;5050039;28;20057;-41
2022/02/24 01:45:26;;;;;;;1.85;1.45;;;;;;;3.13;58.78;93755.63;5049864;28;20021;-40
2022/02/24 01:47:51;;;;;;;4.07;1.80;;;;;;;3.02;58.03;93743.44;5049691;28;20078;-41
2022/02/24 01:50:17;;;;;;;2.15;1.58;;;;;;;3.02;57.61;93759.06;5049560;28;20041;-40
2022/02/24 01:52:44;;;;;;;4.00;1.38;;;;;;;3.06;57.15;93759.56;5049487;28;20025;-40
2022/02/24 01:55:10;;;;;;;3.13;1.42;;;;;;;3.03;56.10;93769.47;5049278;28;20060;-40
2022/02/24 01:57:36;;;;;;;4.45;1.98;;;;;;;3.02;56.11;93762.53;5048480;27;20092;-40
2022/02/24 02:00:04;;;;;;;7.55;1.60;;;;;;;2.96;57.31;93761.03;5049663;28;20508;-40
2022/02/24 02:02:30;;;;;;;4.63;1.75;;;;;;;2.86;59.12;93757.78;5049435;28;20029;-40
2022/02/24 02:04:55;;;;;;;2.75;1.65;;;;;;;2.76;59.29;93758.50;5049548;28;20029;-41
2022/02/24 02:07:21;;;;;;;1.30;1.20;;;;;;;2.75;58.33;93735.94;5049273;28;20039;-40
2022/02/24 02:09:47;;;;;;;6.65;1.73;;;;;;;2.67;58.71;93747.78;5048281;28;20040;-40
2022/02/24 02:12:12;;;;;;;3.75;1.83;;;;;;;2.70;59.03;93758.47;5049204;28;20417;-40
2022/02/24 02:14:38;;;;;;;3.78;1.48;;;;;;;2.66;60.06;93759.94;5049202;28;20081;-40
2022/02/24 02:17:04;;;;;;;3.67;2.03;;;;;;;2.75;58.85;93757.00;5049034;28;20085;-40
2022/02/24 02:19:30;;;;;;;3.65;1.75;;;;;;;2.60;61.50;93757.19;5049484;28;20025;-40
2022/02/24 02:21:55;;;;;;;8.00;1.77;;;;;;;2.60;62.29;93762.63;5049272;28;20021;-40
2022/02/24 02:24:21;;;;;;;4.32;1.75;;;;;;;2.47;63.71;93764.34;5049035;28;20025;-40
2022/02/24 02:26:49;;;;;;;3.17;1.80;;;;;;;2.40;62.91;93772.97;5048760;28;20052;-40
2022/02/24 02:29:16;;;;;;;3.53;1.60;;;;;;;2.36;63.14;93772.44;5048947;28;20033;-40
2022/02/24 02:31:41;;;;;;;4.63;1.77;;;;;;;2.35;61.75;93771.69;5049229;28;20029;-38
2022/02/24 02:34:09;;;;;;;2.80;1.73;;;;;;;2.30;62.91;93786.03;5048847;28;20039;-40
2022/02/24 02:36:37;;;;;;;2.13;1.95;;;;;;;2.10;67.45;93775.28;5049158;28;20025;-38
2022/02/24 02:39:05;;;;;;;2.97;2.03;;;;;;;1.99;69.71;93780.66;5049175;27;20033;-40
2022/02/24 02:41:31;;;;;;;4.15;2.38;;;;;;;1.95;68.95;93777.41;5048703;27;20473;-39
2022/02/24 02:43:57;;;;;;;3.80;2.10;;;;;;;1.97;68.82;93777.69;5048975;28;20037;-39
2022/02/24 02:46:23;;;;;;;4.10;2.28;;;;;;;1.92;66.96;93784.56;5048745;28;20478;-40
2022/02/24 02:48:48;;;;;;;2.67;2.03;;;;;;;1.92;66.41;93772.94;5048501;28;20032;-39
2022/02/24 02:51:14;;;;;;;4.50;2.00;;;;;;;1.87;66.20;93777.09;5048647;28;20091;-40
2022/02/24 02:53:39;;;;;;;3.13;2.03;;;;;;;1.91;66.07;93779.59;5048863;28;20025;-40
2022/02/24 02:56:05;;;;;;;8.85;2.33;;;;;;;1.93;65.87;93790.75;5047600;28;20020;-39
2022/02/24 02:58:30;;;;;;;3.78;2.40;;;;;;;1.97;66.21;93781.13;5048807;28;20085;-39
2022/02/24 03:00:56;;;;;;;4.80;2.75;;;;;;;1.97;65.99;93788.56;5047265;28;20028;-40
2022/02/24 03:03:24;;;;;;;5.10;2.88;;;;;;;1.97;65.58;93767.50;5048741;28;20120;-39
2022/02/24 03:05:53;;;;;;;3.28;2.22;;;;;;;2.04;65.30;93782.66;5048265;28;20104;-37
2022/02/24 03:08:19;;;;;;;4.65;2.53;;;;;;;2.03;66.10;93789.34;5047809;28;20086;-39
2022/02/24 03:10:45;;;;;;;2.97;2.55;;;;;;;2.09;66.07;93790.13;5048624;28;20463;-40
2022/02/24 03:13:10;;;;;;;4.00;2.72;;;;;;;2.12;64.94;93789.88;5048544;28;20021;-39
2022/02/24 03:15:36;;;;;;;16.50;2.90;;;;;;;1.93;66.55;93768.97;5046958;28;20513;-38
2022/02/24 03:18:02;;;;;;;4.13;3.08;;;;;;;2.10;66.70;93808.69;5048560;28;20070;-36
2022/02/24 03:20:30;;;;;;;7.18;2.90;;;;;;;2.06;67.61;93807.41;5048478;28;20032;-38
2022/02/24 03:22:56;;;;;;;4.80;2.78;;;;;;;2.09;67.50;93811.91;5048387;28;20025;-40
2022/02/24 03:25:22;;;;;;;4.55;2.47;;;;;;;2.12;67.91;93810.94;5048103;28;20037;-40
2022/02/24 03:27:47;;;;;;;3.53;2.85;;;;;;;2.05;66.97;93812.16;5047680;28;20099;-40
2022/02/24 03:30:13;;;;;;;4.18;2.67;;;;;;;2.05;66.94;93814.88;5047998;28;20025;-40
2022/02/24 03:32:39;;;;;;;5.93;3.13;;;;;;;2.02;68.15;93815.81;5047977;28;20025;-41
2022/02/24 03:35:06;;;;;;;7.15;2.63;;;;;;;1.95;69.19;93824.44;5046699;28;20025;-41
2022/02/24 03:37:31;;;;;;;6.80;3.45;;;;;;;1.94;70.89;93817.50;5048301;28;20024;-41
2022/02/24 03:39:57;;;;;;;4.03;2.75;;;;;;;1.87;70.96;93817.94;5047426;27;20036;-40
2022/02/24 03:42:24;;;;;;;4.78;3.70;;;;;;;1.90;71.75;93816.22;5048131;28;20032;-40
2022/02/24 03:44:49;;;;;;;4.97;2.45;;;;;;;1.84;71.19;93812.72;5047871;28;20028;-40
2022/02/24 03:47:15;;;;;;;4.32;2.78;;;;;;;1.76;70.37;93812.41;5047955;28;20043;-40
2022/02/24 03:49:40;;;;;;;7.80;2.90;;;;;;;1.82;69.73;93815.19;5048091;28;20426;-40
2022/02/24 03:52:06;;;;;;;4.80;2.85;;;;;;;1.87;68.80;93811.75;5047588;28;20025;-40
2022/02/24 03:54:31;;;;;;;5.22;2.90;;;;;;;1.82;68.65;93821.34;5047708;28;20036;-40
2022/02/24 03:56:57;;;;;;;6.35;2.88;;;;;;;1.74;68.91;93816.84;5047572;28;20029;-40
2022/02/24 03:59:23;;;;;;;6.05;3.00;;;;;;;1.72;68.39;93813.84;5047570;28;20025;-40
2022/02/24 04:01:49;;;;;;;6.50;2.95;;;;;;;1.49;68.80;93800.06;5047531;28;20061;-38
2022/02/24 04:04:15;;;;;;;4.03;2.53;;;;;;;1.71;68.61;93809.66;5047747;28;20074;-40
2022/02/24 04:06:40;;;;;;;4.38;2.83;;;;;;;1.56;68.06;93787.25;5047498;28;20097;-40
2022/02/24 04:09:06;;;;;;;4.70;3.28;;;;;;;1.82;67.83;93809.75;5047338;28;20036;-37
2022/02/24 04:11:31;;;;;;;5.30;3.08;;;;;;;1.74;67.84;93814.88;5047755;28;20036;-40
2022/02/24 04:13:57;;;;;;;10.80;2.90;;;;;;;1.45;66.83;93760.72;5047675;28;20489;-40
2022/02/24 04:16:22;;;;;;;9.35;3.30;;;;;;;1.80;66.41;93809.47;5047656;28;20021;-39
2022/02/24 04:18:48;;;;;;;4.80;3.13;;;;;;;1.87;67.40;93820.66;5047222;28;20021;-40
2022/02/24 04:21:13;;;;;;;4.40;3.55;;;;;;;1.85;66.83;93828.56;5047623;28;20626;-37
2022/02/24 04:23:39;;;;;;;3.95;2.97;;;;;;;1.90;66.31;93822.44;5047492;28;20486;-38
2022/02/24 04:26:04;;;;;;;7.53;2.65;;;;;;;2.03;65.63;93838.38;5047406;28;20040;-40
2022/02/24 04:28:30;;;;;;;2.78;1.95;;;;;;;1.82;65.76;93807.75;5047406;28;20605;-40
2022/02/24 04:30:55;;;;;;;2.97;2.45;;;;;;;1.94;66.15;93828.41;5046445;28;20024;-40
2022/02/24 04:33:20;;;;;;;5.95;2.85;;;;;;;1.97;65.68;93829.41;5047084;28;20479;-39
2022/02/24 04:35:46;;;;;;;3.53;3.00;;;;;;;1.98;65.67;93834.38;5046944;28;20065;-41
2022/02/24 04:38:12;;;;;;;6.88;3.85;;;;;;;1.94;67.61;93839.28;5047050;28;20021;-41
2022/02/24 04:40:37;;;;;;;5.68;2.70;;;;;;;1.95;65.19;93840.78;5046771;27;20037;-40
2022/02/24 04:43:03;;;;;;;6.32;2.95;;;;;;;1.93;66.34;93845.19;5047301;28;20422;-40
2022/02/24 04:45:28;;;;;;;5.65;4.32;;;;;;;1.91;66.90;93850.38;5047282;28;20497;-40
2022/02/24 04:47:54;;;;;;;3.67;3.03;;;;;;;1.95;66.81;93848.22;5046859;28;20031;-41
2022/02/24 04:50:19;;;;;;;4.07;2.92;;;;;;;1.95;65.45;93861.81;5047229;28;20033;-39
2022/02/24 04:52:45;;;;;;;5.00;2.78;;;;;;;1.77;66.97;93824.81;5046873;28;20085;-40
2022/02/24 04:55:10;;;;;;;3.92;3.33;;;;;;;2.01;65.79;93862.59;5046841;28;20025;-40
2022/02/24 04:57:36;;;;;;;7.70;4.90;;;;;;;1.94;65.70;93861.06;5047139;28;20021;-40
2022/02/24 05:00:04;;;;;;;13.40;6.68;;;;;;;1.86;66.03;93860.03;5046778;28;20410;-40
2022/02/24 05:02:29;;;;;;;12.17;5.97;;;;;;;1.87;65.88;93866.19;5046994;28;20025;-40
2022/02/24 05:04:55;;;;;;;10.63;5.32;;;;;;;1.87;66.59;93871.63;5046790;28;20495;-40
2022/02/24 05:07:20;;;;;;;4.43;3.72;;;;;;;1.93;65.89;93886.03;5046925;28;20021;-39
2022/02/24 05:09:46;;;;;;;6.63;3.92;;;;;;;1.88;66.56;93873.16;5046946;28;20029;-40
2022/02/24 05:12:11;;;;;;;9.65;5.18;;;;;;;1.89;65.65;93882.78;5046677;28;20412;-40
2022/02/24 05:14:37;;;;;;;6.53;3.67;;;;;;;1.82;66.32;93870.34;5046942;28;20037;-40
2022/02/24 05:17:02;;;;;;;7.32;4.00;;;;;;;1.90;66.03;93882.31;5046912;28;20033;-40
2022/02/24 05:19:28;;;;;;;9.32;4.22;;;;;;;1.91;66.98;93883.81;5046812;28;20517;-40
2022/02/24 05:21:53;;;;;;;5.38;3.55;;;;;;;1.97;66.60;93884.59;5046791;28;20055;-40
2022/02/24 05:24:19;;;;;;;5.82;3.58;;;;;;;1.86;67.45;93872.88;5046798;28;20048;-40
2022/02/24 05:26:44;;;;;;;9.95;4.32;;;;;;;1.85;66.57;93876.81;5046539;28;20525;-41
2022/02/24 05:29:10;;;;;;;9.98;4.15;;;;;;;1.84;67.71;93869.91;5046732;28;20036;-40
2022/02/24 05:31:35;;;;;;;10.40;5.10;;;;;;;1.93;67.67;93875.16;5049389;28;20081;-40
2022/02/24 05:34:01;;;;;;;12.10;6.72;;;;;;;1.89;67.97;93874.63;5050137;28;20029;-39
2022/02/24 05:36:26;;;;;;;5.28;3.80;;;;;;;1.92;68.03;93876.41;5050050;28;20036;-41
2022/02/24 05:38:54;;;;;;;11.05;4.85;;;;;;;1.97;67.52;93878.44;5049840;28;20080;-38
2022/02/24 05:41:20;;;;;;;7.00;4.40;;;;;;;1.62;68.20;93856.84;5049453;27;20107;-40
2022/02/24 05:43:46;;;;;;;8.00;3.97;;;;;;;1.83;68.19;93888.19;5049769;28;20063;-38
2022/02/24 05:46:11;;;;;;;8.18;4.30;;;;;;;1.85;68.44;93895.88;5048911;28;20029;-40
2022/02/24 05:48:37;;;;;;;10.32;3.90;;;;;;;1.82;68.49;93894.84;5049176;28;20029;-40
2022/02/24 05:51:03;;;;;;;6.03;4.35;;;;;;;1.87;68.80;93902.34;5049979;28;20395;-40
2022/02/24 05:53:29;;;;;;;16.05;5.97;;;;;;;1.82;68.84;93905.03;5049796;28;20029;-40
2022/02/24 05:55:54;;;;;;;6.25;4.15;;;;;;;1.86;69.21;93914.47;5049850;28;20653;-40
2022/02/24 05:58:20;;;;;;;9.32;5.05;;;;;;;1.87;69.43;93923.38;5049713;28;20036;-40
2022/02/24 06:00:45;;;;;;;5.18;3.50;;;;;;;1.84;69.58;93919.63;5049361;28;20024;-41
2022/02/24 06:03:11;;;;;;;7.63;4.72;;;;;;;1.80;70.18;93924.53;5049749;28;20104;-40
2022/02/24 06:05:36;;;;;;;6.43;4.75;;;;;;;1.81;70.30;93938.91;5049588;28;20025;-39
2022/02/24 06:08:02;;;;;;;11.82;5.10;;;;;;;1.79;70.57;93930.47;5049282;28;20043;-40
2022/02/24 06:10:27;;;;;;;8.10;5.18;;;;;;;1.76;70.22;93920.53;5049185;28;20068;-40
2022/02/24 06:12:57;;;;;;;7.70;3.78;;;;;;;1.89;69.75;93929.06;5049190;28;20025;-40
2022/02/24 06:15:23;;;;;;;6.00;4.35;;;;;;;1.85;70.62;93928.53;5049575;28;20029;-41
2022/02/24 06:17:49;;;;;;;6.20;4.78;;;;;;;1.97;69.95;93943.78;5049110;28;20107;-40
2022/02/24 06:20:14;;;;;;;14.88;6.93;;;;;;;1.88;70.21;93938.50;5049260;28;20025;-40
2022/02/24 06:22:40;;;;;;;6.75;4.65;;;;;;;1.85;70.41;93934.75;5049392;28;20021;-40
2022/02/24 06:25:06;;;;;;;8.10;5.75;;;;;;;1.91;70.42;93932.06;5049031;28;20068;-39
2022/02/24 06:27:31;;;;;;;9.73;5.82;;;;;;;1.90;70.55;93927.88;5048778;28;20140;-40
2022/02/24 06:29:58;;;;;;;9.55;5.55;;;;;;;1.95;71.11;93932.63;5048860;28;20040;-39
2022/02/24 06:32:23;;;;;;;6.88;5.05;;;;;;;2.00;70.23;93924.50;5048866;28;20029;-40
2022/02/24 06:34:48;;;;;;;12.82;6.50;;;;;;;2.07;71.24;93934.19;5048759;28;20035;-40
2022/02/24 06:37:14;;;;;;;7.07;5.88;;;;;;;2.00;70.08;93945.53;5048800;28;20037;-41
2022/02/24 06:39:39;;;;;;;8.23;4.45;;;;;;;1.86;70.69;93919.91;5046908;28;20050;-40
2022/02/24 06:42:05;;;;;;;13.45;6.32;;;;;;;2.04;70.92;93951.50;5046042;27;20032;-40
2022/02/24 06:44:31;;;;;;;8.90;5.10;;;;;;;1.99;71.58;93947.50;5046670;28;20028;-39
2022/02/24 06:46:56;;;;;;;12.70;8.02;;;;;;;2.01;71.22;93952.47;5046433;28;20056;-39
2022/02/24 06:49:22;;;;;;;11.25;6.50;;;;;;;2.08;71.14;93954.78;5046658;28;20028;-37
2022/02/24 06:51:50;;;;;;;11.45;7.93;;;;;;;2.07;71.60;93950.53;5046377;28;20097;-38
2022/02/24 06:54:16;;;;;;;16.75;7.38;;;;;;;1.96;72.91;93961.31;5032942;28;20423;-39
2022/02/24 06:56:41;;;;;;;17.45;11.15;;;;;;;1.88;73.77;93968.44;5026353;28;20073;-38
2022/02/24 06:59:07;;;;;;;10.13;7.80;;;;;;;1.78;75.58;93962.38;5026323;28;20026;-38
2022/02/24 07:01:32;;;;;;;10.98;6.35;;;;;;;1.83;75.35;93982.72;5026305;28;20037;-40
2022/02/24 07:03:58;;;;;;;17.30;6.22;;;;;;;1.70;76.26;93969.50;5026330;28;20033;-38
2022/02/24 07:06:23;;;;;;;17.60;8.02;;;;;;;1.67;76.74;93983.31;5028503;28;20745;-40
2022/02/24 07:08:49;;;;;;;28.73;16.02;;;;;;;1.62;76.62;93978.56;5040425;28;20047;-38
2022/02/24 07:11:14;;;;;;;16.20;8.73;;;;;;;1.62;76.75;93970.38;5046229;28;20428;-40
2022/02/24 07:13:40;;;;;;;15.02;9.93;;;;;;;1.65;76.04;93972.88;5044448;28;20481;-39
2022/02/24 07:16:07;;;;;;;10.45;6.38;;;;;;;1.86;75.64;93993.44;5027884;28;20124;-40
2022/02/24 07:18:33;;;;;;;12.27;6.95;;;;;;;1.98;75.61;93992.31;5026387;28;20040;-40
2022/02/24 07:20:58;;;;;;;9.25;6.28;;;;;;;2.05;74.67;93991.88;5026238;28;20461;-39
2022/02/24 07:23:24;;;;;;;10.43;5.40;;;;;;;2.18;73.33;94005.13;5025955;28;20037;-40
2022/02/24 07:25:53;;;;;;;6.85;4.45;;;;;;;2.20;74.01;93994.50;5036240;28;20033;-39
2022/02/24 07:28:20;;;;;;;4.35;3.30;;;;;;;2.47;72.66;94002.16;5045139;28;20444;-40
2022/02/24 07:30:45;;;;;;;7.75;3.95;;;;;;;2.58;71.69;94004.97;5045402;28;20101;-38
2022/02/24 07:33:11;;;;;;;4.63;3.15;;;;;;;2.37;71.23;93987.22;5045752;28;20029;-39
2022/02/24 07:35:36;;;;;;;6.95;4.45;;;;;;;2.49;71.59;94018.75;5045464;28;20422;-40
2022/02/24 07:38:01;;;;;;;4.95;3.90;;;;;;;2.49;71.54;94013.31;5045548;28;20085;-40
2022/02/24 07:40:27;;;;;;;3.15;2.80;;;;;;;2.46;72.06;94011.56;5044779;28;20036;-41
2022/02/24 07:42:52;;;;;;;4.35;2.45;;;;;;;2.45;72.38;94018.25;5045714;28;20037;-40
2022/02/24 07:45:18;;;;;;;14.38;6.30;;;;;;;2.45;72.25;94020.25;5045760;28;20105;-40
2022/02/24 07:47:43;;;;;;;17.17;5.25;;;;;;;2.45;72.46;94023.69;5046309;28;20029;-39
2022/02/24 07:50:13;;;;;;;8.50;4.72;;;;;;;2.51;72.21;94021.78;5047749;28;20021;-40
2022/02/24 07:52:42;;;;;;;8.50;4.65;;;;;;;2.37;71.53;93998.09;5043397;28;20433;-40
2022/02/24 07:55:08;;;;;;;7.10;5.30;;;;;;;2.51;72.64;94021.78;5044729;28;20036;-37
2022/02/24 07:57:34;;;;;;;4.20;3.38;;;;;;;2.67;71.70;94029.34;5045982;28;20025;-40
2022/02/24 07:59:59;;;;;;;4.47;2.80;;;;;;;2.80;71.33;94035.13;5047505;28;20505;-38
2022/02/24 08:02:24;;;;;;;6.78;3.90;;;;;;;2.98;70.86;94032.06;5046826;28;20336;-38
2022/02/24 08:04:50;;;;;;;30.25;12.10;;;;;;;3.05;71.07;94041.78;5045839;28;20082;-40
2022/02/24 08:07:15;;;;;;;10.43;5.07;;;;;;;3.19;70.23;94035.41;5045504;28;20028;-39
2022/02/24 08:09:41;;;;;;;13.30;6.13;;;;;;;3.45;69.60;94038.78;5043200;28;20021;-40
2022/02/24 08:14:50;;;;;;;2.50;2.00;;;;;;;6.04;62.26;94036.72;5044456;28;20452;-39
2022/02/24 08:17:16;;;;;;;3.47;3.05;;;;;;;6.47;58.62;94035.00;5044988;28;20025;-40
2022/02/24 08:19:42;;;;;;;3.22;2.60;;;;;;;6.29;59.03;94038.34;5044481;28;20509;-40
2022/02/24 08:22:08;;;;;;;6.28;3.97;;;;;;;6.22;59.08;94010.69;5045838;28;20508;-40
2022/02/24 08:24:35;;;;;;;6.32;3.95;;;;;;;6.43;58.09;94033.78;5046669;28;20025;-40
2022/02/24 08:27:00;;;;;;;6.95;3.83;;;;;;;6.38;58.44;94035.31;5046949;28;20049;-39
2022/02/24 08:29:25;;;;;;;22.58;12.10;;;;;;;6.09;58.42;94033.19;5045756;28;20033;-38
2022/02/24 08:31:51;;;;;;;15.85;8.38;;;;;;;5.97;59.91;94034.50;5047135;28;20037;-40
2022/02/24 08:34:17;;;;;;;17.85;9.30;;;;;;;6.30;58.39;94036.34;5047132;28;20029;-40
2022/02/24 08:36:43;;;;;;;10.13;6.03;;;;;;;6.13;57.73;94033.66;5047383;28;20455;-40
2022/02/24 08:39:09;;;;;;;8.68;4.95;;;;;;;6.00;58.99;94034.22;5047068;28;20035;-41
2022/02/24 08:41:35;;;;;;;10.68;6.07;;;;;;;6.24;58.60;94033.63;5046483;27;20082;-40
2022/02/24 08:44:00;;;;;;;11.43;7.25;;;;;;;6.27;57.93;94026.38;5046989;28;20064;-40
2022/02/24 08:46:26;;;;;;;4.25;2.95;;;;;;;6.30;56.31;94041.84;5047317;28;20049;-40
2022/02/24 08:48:51;;;;;;;4.40;3.33;;;;;;;6.22;57.90;94044.34;5047081;28;20064;-39
2022/02/24 08:51:17;;;;;;;4.05;2.05;;;;;;;5.97;57.30;94040.72;5047285;28;20025;-40
2022/02/24 08:53:42;;;;;;;14.90;7.70;;;;;;;5.85;57.52;94033.78;5047045;28;20021;-41
2022/02/24 08:56:08;;;;;;;7.95;5.40;;;;;;;5.56;57.82;94036.34;5045582;28;20056;-40
2022/02/24 08:58:33;;;;;;;12.65;7.50;;;;;;;5.60;58.57;94042.31;5046891;28;20017;-40
2022/02/24 09:00:59;;;;;;;9.65;6.05;;;;;;;5.25;60.28;94032.69;5046861;28;20513;-40
2022/02/24 09:03:24;;;;;;;2.15;1.80;;;;;;;5.23;58.35;94032.44;5047069;28;20501;-40
2022/02/24 09:05:50;;;;;;;30.42;14.43;;;;;;;5.41;58.28;94047.59;5048905;28;20501;-40
2022/02/24 09:08:15;;;;;;;19.05;8.18;;;;;;;5.48;59.60;94049.06;5050205;28;20035;-38
2022/02/24 09:10:41;;;;;;;15.20;7.68;;;;;;;5.65;57.68;94047.75;5050194;28;20021;-40
2022/02/24 09:13:07;;;;;;;8.18;3.88;;;;;;;6.03;55.51;94043.44;5048937;28;20032;-40
2022/02/24 09:15:35;;;;;;;8.07;5.38;;;;;;;5.80;53.89;94047.50;5050200;28;20036;-41
2022/02/24 09:18:00;;;;;;;2.92;1.98;;;;;;;5.57;54.58;94044.06;5050327;28;20119;-41
2022/02/24 09:20:29;;;;;;;3.30;2.10;;;;;;;5.57;54.88;94038.59;5050380;28;20546;-39
2022/02/24 09:22:55;;;;;;;6.07;3.20;;;;;;;5.56;55.57;94052.78;5050087;28;20024;-40
2022/02/24 09:25:21;;;;;;;18.35;8.13;;;;;;;5.55;55.57;94052.03;5050488;28;20037;-40
2022/02/24 09:27:46;;;;;;;8.02;3.55;;;;;;;5.36;55.42;94051.09;5049725;28;20056;-38
2022/02/24 09:30:12;;;;;;;5.78;2.55;;;;;;;5.33;56.44;94052.81;5050175;28;20025;-40
2022/02/24 09:32:37;;;;;;;1.48;1.38;;;;;;;5.28;56.42;94050.09;5050115;28;20033;-40
2022/02/24 09:35:04;;;;;;;3.50;2.55;;;;;;;5.34;55.35;94046.13;5048996;28;20422;-40
2022/02/24 09:37:34;;;;;;;2.58;1.67;;;;;;;5.44;54.45;94041.09;5049750;28;20457;-40
2022/02/24 09:40:01;;;;;;;12.80;7.63;;;;;;;5.45;55.21;94037.13;5066598;27;20470;-40
2022/02/24 09:42:26;;;;;;;5.68;4.60;;;;;;;5.24;56.30;94039.38;5049732;28;20025;-40
2022/02/24 09:44:52;;;;;;;2.17;1.38;;;;;;;5.08;55.07;94045.63;5048744;28;20036;-39
2022/02/24 09:47:17;;;;;;;11.85;5.78;;;;;;;5.25;56.60;94045.63;5048621;28;20033;-40
2022/02/24 09:49:44;;;;;;;19.15;8.38;;;;;;;5.25;57.36;94043.63;5048654;28;20028;-40
2022/02/24 09:52:09;;;;;;;8.57;4.63;;;;;;;5.27;55.88;94040.38;5048356;28;20092;-40
2022/02/24 09:54:35;;;;;;;6.95;3.50;;;;;;;5.40;55.99;94046.09;5049852;28;20029;-40
2022/02/24 09:57:00;;;;;;;4.10;3.35;;;;;;;5.23;56.61;94037.16;5049496;28;20032;-40
2022/02/24 09:59:27;;;;;;;2.30;1.40;;;;;;;5.29;54.96;94038.66;5049696;28;20025;-38
2022/02/24 10:01:52;;;;;;;6.57;4.55;;;;;;;5.25;56.07;94018.25;5049376;28;20033;-40
2022/02/24 10:04:18;;;;;;;2.75;2.35;;;;;;;5.47;53.50;94040.09;5048488;28;20025;-40
2022/02/24 10:06:44;;;;;;;1.70;1.60;;;;;;;5.40;54.68;94026.91;5049609;28;20482;-40
2022/02/24 10:09:12;;;;;;;4.05;1.58;;;;;;;5.54;53.93;94000.50;5049519;28;20026;-40
2022/02/24 10:11:41;;;;;;;6.50;4.20;;;;;;;6.03;51.77;94011.31;5047027;28;20036;-40
2022/02/24 10:14:06;;;;;;;3.03;2.10;;;;;;;6.41;52.63;94006.13;5048921;28;20028;-40
2022/02/24 10:16:53;;;;;;;3.13;1.15;;;;;;;6.33;50.68;94002.41;5049376;28;20065;-40
2022/02/24 10:19:30;;;;;;;8.23;5.80;;;;;;;6.15;52.28;94003.03;5049100;28;20028;-40
2022/02/24 10:22:14;;;;;;;3.28;1.83;;;;;;;6.11;52.45;93997.78;5049170;28;20025;-39
2022/02/24 10:24:42;;;;;;;2.70;2.28;;;;;;;5.99;52.02;93997.13;5048992;28;20524;-40
2022/02/24 10:27:22;;;;;;;2.20;1.50;;;;;;;6.60;54.75;93998.75;5048898;28;20059;-40
2022/02/24 10:30:08;;;;;;;2.33;1.70;;;;;;;7.02;49.89;93995.41;5049031;28;20060;-40
2022/02/24 10:32:36;;;;;;;1.95;1.48;;;;;;;6.44;49.58;93983.13;5048978;28;20554;-40
2022/02/24 10:35:25;;;;;;;2.30;1.73;;;;;;;6.85;50.48;93986.56;5048853;28;20033;-39
2022/02/24 10:37:56;;;;;;;2.15;1.20;;;;;;;7.99;46.08;93948.69;5048902;28;20414;-40
2022/02/24 10:40:22;;;;;;;1.80;1.30;;;;;;;7.65;45.53;93979.31;5048489;27;20025;-40
2022/02/24 10:42:47;;;;;;;1.75;1.40;;;;;;;6.59;50.12;93969.81;5049088;28;20032;-39
2022/02/24 10:45:16;;;;;;;1.45;1.10;;;;;;;7.96;46.79;93969.69;5048835;28;20066;-40
2022/02/24 10:48:09;;;;;;;2.00;1.33;;;;;;;8.22;47.30;93974.59;5048279;28;20100;-40
2022/02/24 10:50:57;;;;;;;2.65;1.40;;;;;;;7.77;46.91;93973.69;5045347;28;20045;-40
2022/02/24 10:53:26;;;;;;;1.97;1.60;;;;;;;7.25;47.85;93974.75;5048938;28;20055;-40
2022/02/24 10:56:06;;;;;;;2.33;1.93;;;;;;;6.42;47.88;93969.94;5048863;28;20492;-41
2022/02/24 10:58:35;;;;;;;1.92;1.50;;;;;;;5.97;49.05;93974.22;5048888;28;20415;-40
2022/02/24 11:01:03;;;;;;;3.75;1.73;;;;;;;5.98;50.76;93970.94;5048447;28;20039;-40
2022/02/24 11:03:29;;;;;;;1.65;1.20;;;;;;;6.04;50.94;93963.44;5047645;28;20025;-40
2022/02/24 11:05:57;;;;;;;4.22;2.95;;;;;;;6.13;50.89;93954.91;5048467;28;20025;-40
2022/02/24 11:08:23;;;;;;;1.88;1.58;;;;;;;6.09;50.66;93962.66;5047453;28;20520;-40
2022/02/24 11:10:49;;;;;;;1.90;1.50;;;;;;;5.96;49.82;93970.72;5047191;28;20062;-40
2022/02/24 11:13:14;;;;;;;2.58;1.40;;;;;;;5.62;50.73;93963.13;5047396;28;20040;-40
2022/02/24 11:15:40;;;;;;;2.75;2.15;;;;;;;5.29;51.32;93953.78;5048253;28;20502;-40
2022/02/24 11:18:06;;;;;;;2.45;1.48;;;;;;;4.98;52.31;93956.09;5047332;28;20413;-40
2022/02/24 11:20:33;;;;;;;2.35;1.85;;;;;;;4.85;53.61;93956.59;5048229;28;20486;-40
2022/02/24 11:22:58;;;;;;;1.90;1.42;;;;;;;4.78;54.53;93937.97;5047201;28;20029;-40
2022/02/24 11:25:25;;;;;;;5.10;2.55;;;;;;;4.94;53.98;93953.59;5045677;28;20409;-40
2022/02/24 11:27:52;;;;;;;4.05;2.30;;;;;;;5.04;53.70;93946.63;5045703;28;20049;-39
2022/02/24 11:30:32;;;;;;;3.53;1.85;;;;;;;4.54;55.41;93949.44;5046905;28;20067;-40
2022/02/24 11:32:58;;;;;;;1.42;1.20;;;;;;;4.32;55.16;93937.72;5048006;28;20025;-40
2022/02/24 11:35:24;;;;;;;5.38;1.63;;;;;;;4.32;55.67;93938.47;5047025;28;20021;-40
2022/02/24 11:38:05;;;;;;;3.08;1.73;;;;;;;4.40;55.03;93935.97;5047912;28;20021;-40